Time;durP1;ratioP1;P1;durP2;ratioP2;P2;SDS_P1;SDS_P2;PMS_P1;PMS_P2;Temp;Humidity;BMP_temperature;BMP_pressure;BME280_temperature;BME280_humidity;BME280_pressure;Samples;Min_cycle;Max_cycle;Signal;HPM_P1;HPM_P2
2023/10/18 11:51:45;;;;;;;6.80;4.50;;;;;;;9.94;60.81;99107.44;106890;1305;545543;-48
2023/10/18 11:54:13;;;;;;;7.30;5.30;;;;;;;9.91;59.57;99109.38;107230;1297;22357;-48
2023/10/18 11:56:39;;;;;;;10.60;5.50;;;;;;;9.93;60.47;99105.91;107203;1313;22314;-50
2023/10/18 11:59:05;;;;;;;7.00;4.70;;;;;;;9.90;59.53;99097.87;107184;1294;22305;-48
2023/10/18 12:01:33;;;;;;;7.80;5.60;;;;;;;9.91;60.37;99099.90;107197;1295;22266;-48
2023/10/18 12:03:59;;;;;;;8.30;5.60;;;;;;;9.93;61.01;99092.80;107279;1313;22262;-49
2023/10/18 12:06:25;;;;;;;9.10;5.40;;;;;;;9.96;60.81;99090.89;107438;1291;147581;-47
2023/10/18 12:11:35;;;;;;;7.50;6.10;;;;;;;10.02;61.61;99089.67;107703;1308;23051;-50
2023/10/18 12:14:01;;;;;;;7.80;5.70;;;;;;;10.06;61.85;99090.51;107734;1288;22178;-51
2023/10/18 12:16:26;;;;;;;8.00;5.50;;;;;;;10.10;62.14;99084.16;107699;1307;22450;-46
2023/10/18 12:18:54;;;;;;;7.60;5.80;;;;;;;10.14;61.59;99083.06;107705;1308;22326;-50
2023/10/18 12:21:20;;;;;;;9.60;6.10;;;;;;;10.20;61.75;99080.10;107677;1289;22502;-49
2023/10/18 12:23:46;;;;;;;10.70;6.60;;;;;;;10.32;60.35;99080.30;107713;1285;22456;-50
2023/10/18 12:26:11;;;;;;;8.20;5.70;;;;;;;10.71;60.31;99076.80;107690;1302;22356;-47
2023/10/18 12:28:38;;;;;;;11.10;6.00;;;;;;;11.82;59.22;99073.30;107750;1288;22258;-48
2023/10/18 12:31:13;;;;;;;9.20;6.10;;;;;;;13.71;57.67;99074.41;107704;1308;22482;-48
2023/10/18 12:33:40;;;;;;;9.00;6.00;;;;;;;15.87;52.46;99072.90;107709;1291;22385;-46
2023/10/18 12:36:08;;;;;;;8.50;5.90;;;;;;;17.72;50.02;99059.41;107748;1301;23125;-47
2023/10/18 12:38:38;;;;;;;8.40;5.40;;;;;;;19.42;46.27;99059.30;107691;1290;22402;-47
2023/10/18 12:41:27;;;;;;;7.00;5.20;;;;;;;20.77;40.27;99062.75;107656;1288;22534;-50
2023/10/18 12:43:53;;;;;;;6.40;5.60;;;;;;;22.00;40.34;99060.19;107705;1291;22396;-51
2023/10/18 12:46:21;;;;;;;6.50;4.70;;;;;;;22.97;38.07;99059.65;107696;1297;22414;-49
2023/10/18 12:48:49;;;;;;;8.00;4.60;;;;;;;23.65;32.79;99056.35;107724;1308;23018;-51
2023/10/18 12:51:17;;;;;;;7.00;5.00;;;;;;;24.48;36.59;99061.27;107709;1288;22472;-48
2023/10/18 12:53:47;;;;;;;8.40;5.30;;;;;;;25.02;31.59;99063.56;107660;1308;22461;-48
2023/10/18 12:56:24;;;;;;;7.20;4.80;;;;;;;25.63;28.11;99059.46;107732;1308;22570;-49
2023/10/18 12:59:12;;;;;;;;;;;;;;;26.27;27.86;99054.83;107736;1309;23401;-49
2023/10/18 13:04:07;;;;;;;6.20;4.10;;;;;;;27.02;25.94;99052.60;107516;1301;23080;-52
2023/10/18 13:06:42;;;;;;;6.50;5.00;;;;;;;27.21;27.50;99046.95;107653;1304;22230;-52
2023/10/18 13:09:19;;;;;;;11.20;4.90;;;;;;;27.76;28.70;99040.10;107707;1304;22424;-51
2023/10/18 13:14:24;;;;;;;8.00;4.30;;;;;;;28.42;23.61;99038.48;107418;1310;22389;-49
2023/10/18 13:16:51;;;;;;;12.80;9.50;;;;;;;28.60;22.67;99036.22;107574;1302;22547;-49
2023/10/18 13:19:19;;;;;;;16.00;8.80;;;;;;;28.82;21.78;99031.06;107546;1291;22442;-45
2023/10/18 13:21:44;;;;;;;17.30;5.70;;;;;;;28.96;21.49;99027.46;107672;1290;22293;-48
2023/10/18 13:24:17;;;;;;;7.60;4.40;;;;;;;29.11;21.76;99031.34;107705;1291;22411;-49
2023/10/18 13:26:47;;;;;;;4.60;3.60;;;;;;;29.62;22.49;99029.47;107697;1285;23328;-47
2023/10/18 13:29:35;;;;;;;4.30;3.70;;;;;;;30.04;22.10;99027.45;107545;1291;22294;-49
2023/10/18 13:31:58;;;;;;;5.70;3.50;;;;;;;30.34;23.11;99022.22;107687;1309;22259;-46
2023/10/18 13:34:27;;;;;;;5.40;3.10;;;;;;;30.41;21.23;99020.59;107648;1291;23224;-50
2023/10/18 13:36:54;;;;;;;3.80;3.50;;;;;;;30.27;20.74;99015.84;107656;1291;22336;-50
2023/10/18 13:39:22;;;;;;;4.00;3.70;;;;;;;30.03;19.94;99012.02;107604;1309;22477;-48
2023/10/18 13:41:49;;;;;;;6.60;3.80;;;;;;;30.14;20.57;99014.20;107696;1291;22471;-49
2023/10/18 13:44:19;;;;;;;3.90;3.60;;;;;;;30.18;21.49;99011.18;107656;1288;22486;-46
2023/10/18 13:46:50;;;;;;;5.60;4.70;;;;;;;30.10;20.83;99011.35;107693;1291;22639;-50
2023/10/18 13:49:17;;;;;;;4.40;3.90;;;;;;;29.90;20.45;99004.55;107674;1309;22478;-50
2023/10/18 13:51:43;;;;;;;5.70;4.00;;;;;;;29.16;19.73;99008.71;107678;1309;23250;-47
2023/10/18 13:54:08;;;;;;;5.80;3.90;;;;;;;28.51;20.00;99006.75;107682;1309;22445;-50
2023/10/18 13:56:34;;;;;;;5.10;4.20;;;;;;;27.74;20.88;98997.08;107699;1288;23285;-49
2023/10/18 13:59:01;;;;;;;4.70;3.80;;;;;;;25.92;22.48;98991.35;107691;1291;23036;-50
2023/10/18 14:01:27;;;;;;;5.00;4.50;;;;;;;23.99;24.11;98989.70;107591;1291;22222;-50
2023/10/18 14:03:54;;;;;;;9.20;4.30;;;;;;;22.18;26.12;98987.19;107716;1288;22472;-50
2023/10/18 14:06:19;;;;;;;6.10;5.00;;;;;;;20.82;27.92;98979.24;107669;1301;22993;-49
2023/10/18 14:08:45;;;;;;;10.20;6.20;;;;;;;19.63;29.68;98978.55;107641;1301;23442;-47
2023/10/18 14:11:15;;;;;;;9.70;6.90;;;;;;;18.82;31.05;98971.70;107691;1307;22462;-51
2023/10/18 14:13:44;;;;;;;9.90;6.90;;;;;;;18.06;31.96;98970.73;107695;1309;23320;-49
2023/10/18 14:16:16;;;;;;;11.00;6.10;;;;;;;17.41;32.98;98966.30;107663;1309;22253;-47
2023/10/18 14:18:43;;;;;;;22.50;15.10;;;;;;;16.79;34.01;98966.70;107550;1291;22222;-46
2023/10/18 14:21:14;;;;;;;22.00;13.60;;;;;;;16.16;34.67;98972.14;107668;1291;23193;-48
2023/10/18 14:23:45;;;;;;;11.00;7.50;;;;;;;15.57;35.73;98970.65;107495;1305;22629;-48
2023/10/18 14:26:11;;;;;;;12.30;6.50;;;;;;;15.12;36.83;98968.02;107687;1291;23089;-46
2023/10/18 14:28:37;;;;;;;7.50;6.30;;;;;;;14.77;37.40;98962.52;107673;1288;23244;-51
2023/10/18 14:31:07;;;;;;;8.70;6.10;;;;;;;14.42;39.38;98959.72;107749;1284;22380;-52
2023/10/18 14:33:33;;;;;;;34.40;15.90;;;;;;;14.10;38.90;98959.28;107779;1293;22330;-49
2023/10/18 14:36:08;;;;;;;14.00;8.30;;;;;;;13.83;38.88;98958.29;107776;1285;22458;-51
2023/10/18 14:38:34;;;;;;;15.50;7.80;;;;;;;13.61;39.79;98953.02;107775;1308;22637;-47
2023/10/18 14:41:04;;;;;;;27.90;13.60;;;;;;;13.42;40.54;98948.21;107754;1308;22303;-47
2023/10/18 14:43:31;;;;;;;18.40;9.40;;;;;;;13.21;42.17;98943.92;107766;1307;22481;-50
2023/10/18 14:45:59;;;;;;;22.50;10.00;;;;;;;13.01;41.68;98946.70;107505;1307;22295;-48
2023/10/18 14:48:24;;;;;;;34.00;14.90;;;;;;;12.81;42.79;98944.08;107837;1288;22454;-50
2023/10/18 14:50:51;;;;;;;31.10;15.00;;;;;;;12.63;43.60;98943.22;107716;1291;23205;-49
2023/10/18 14:53:19;;;;;;;44.60;17.80;;;;;;;12.50;44.07;98945.52;107821;1288;22450;-50
2023/10/18 14:55:45;;;;;;;38.10;16.20;;;;;;;12.36;45.80;98944.05;107797;1307;22313;-53
2023/10/18 14:58:11;;;;;;;11.10;7.10;;;;;;;12.24;44.89;98944.33;107778;1308;22564;-49
2023/10/18 15:00:39;;;;;;;12.90;7.40;;;;;;;12.12;45.79;98938.98;107808;1308;22322;-43
2023/10/18 15:03:06;;;;;;;;;;;;;;;12.00;45.88;98935.90;107787;1307;22457;-44
2023/10/18 15:05:38;;;;;;;49.80;16.90;;;;;;;11.86;46.03;98939.73;107825;1307;22393;-43
2023/10/18 15:08:05;;;;;;;26.80;11.50;;;;;;;11.73;46.37;98940.27;107787;1308;22330;-49
2023/10/18 15:10:31;;;;;;;56.20;20.00;;;;;;;11.60;47.25;98938.69;107774;1288;23245;-49
2023/10/18 15:12:57;;;;;;;65.90;25.30;;;;;;;11.51;47.29;98935.52;107720;1308;22333;-47
2023/10/18 15:15:23;;;;;;;25.30;12.10;;;;;;;11.45;47.54;98932.77;107809;1308;22239;-49
2023/10/18 15:17:48;;;;;;;44.70;15.70;;;;;;;11.36;47.81;98934.61;107804;1308;22399;-50
2023/10/18 15:20:16;;;;;;;39.20;15.70;;;;;;;11.27;47.82;98929.22;107706;1308;23077;-46
2023/10/18 15:22:41;;;;;;;24.50;12.00;;;;;;;11.23;48.27;98930.13;107757;1308;22315;-47
2023/10/18 15:25:09;;;;;;;22.10;10.10;;;;;;;11.14;50.97;98926.15;107651;1308;24162;-48
2023/10/18 15:27:34;;;;;;;16.80;8.60;;;;;;;10.97;53.13;98929.34;107779;1308;22322;-48
2023/10/18 15:30:06;;;;;;;14.30;8.30;;;;;;;10.82;53.27;98927.64;107762;1308;22256;-47
2023/10/18 15:32:31;;;;;;;17.40;9.50;;;;;;;10.65;54.65;98923.08;107793;1308;22935;-47
2023/10/18 15:34:58;;;;;;;16.20;10.10;;;;;;;10.51;54.81;98915.88;107771;1308;23260;-45
2023/10/18 15:37:24;;;;;;;14.80;8.00;;;;;;;10.38;56.22;98917.52;107785;1307;22397;-45
